Time;durP1;ratioP1;P1;durP2;ratioP2;P2;SDS_P1;SDS_P2;PMS_P1;PMS_P2;Temp;Humidity;BMP_temperature;BMP_pressure;BME280_temperature;BME280_humidity;BME280_pressure;Samples;Min_cycle;Max_cycle;Signal;HPM_P1;HPM_P2
2021/06/07 00:02:13;;;;;;;11.05;9.95;;;;;;;20.27;57.32;95027.84;5007876;23;20113;-84
2021/06/07 00:04:38;;;;;;;9.85;8.82;;;;;;;20.21;56.76;95018.44;5018376;23;21032;-84
2021/06/07 00:07:05;;;;;;;9.95;9.00;;;;;;;20.17;57.24;95024.56;4963263;28;20050;-85
2021/06/07 00:09:31;;;;;;;10.65;9.65;;;;;;;20.12;57.55;95029.91;4930747;29;20038;-84
2021/06/07 00:11:58;;;;;;;11.32;8.48;;;;;;;20.09;57.67;95028.63;4914193;29;20044;-84
2021/06/07 00:14:27;;;;;;;10.77;9.07;;;;;;;19.96;58.01;95019.56;4938242;29;20043;-84
2021/06/07 00:16:52;;;;;;;10.25;9.10;;;;;;;19.88;58.45;95022.88;4937595;29;20055;-84
2021/06/07 00:19:19;;;;;;;13.13;9.55;;;;;;;19.84;58.40;95023.69;4940517;29;20244;-85
2021/06/07 00:21:45;;;;;;;10.30;9.30;;;;;;;19.79;58.84;95016.66;4928377;29;20027;-84
2021/06/07 00:24:10;;;;;;;13.60;10.20;;;;;;;19.72;59.30;95024.13;4924063;29;20452;-86
2021/06/07 00:26:36;;;;;;;11.20;10.02;;;;;;;19.58;59.72;95018.75;4912521;29;20042;-84
2021/06/07 00:29:01;;;;;;;11.65;10.38;;;;;;;19.45;60.24;95019.41;4924081;29;20043;-83
2021/06/07 00:31:27;;;;;;;14.38;10.60;;;;;;;19.34;60.80;95016.09;4934131;23;20044;-83
2021/06/07 00:33:52;;;;;;;12.05;10.02;;;;;;;19.25;61.17;95024.94;4914492;29;20043;-83
2021/06/07 00:36:21;;;;;;;11.45;10.35;;;;;;;19.25;60.79;95020.44;4915811;29;20036;-85
2021/06/07 00:38:47;;;;;;;16.92;11.23;;;;;;;19.15;60.99;95013.41;4929788;29;20500;-85
2021/06/07 00:41:13;;;;;;;13.57;10.75;;;;;;;19.13;60.98;95015.56;4920114;29;20035;-85
2021/06/07 00:43:39;;;;;;;15.73;11.68;;;;;;;19.11;61.23;95017.69;4919741;29;20024;-85
2021/06/07 00:46:04;;;;;;;11.95;10.70;;;;;;;19.10;60.90;95016.13;4894097;29;20040;-85
2021/06/07 00:48:30;;;;;;;11.80;10.63;;;;;;;19.10;61.44;95024.03;4894916;29;20032;-85
2021/06/07 00:51:01;;;;;;;14.50;10.68;;;;;;;19.07;61.57;95019.31;4933034;29;20040;-85
2021/06/07 00:53:26;;;;;;;22.50;10.70;;;;;;;19.06;61.77;95017.75;4920835;29;20539;-85
2021/06/07 00:55:58;;;;;;;18.85;10.65;;;;;;;19.03;61.76;95013.00;4956743;23;20035;-84
2021/06/07 00:58:31;;;;;;;;;;;;;;;19.06;62.04;95016.97;4932767;29;20193;-85
2021/06/07 01:00:57;;;;;;;11.55;10.30;;;;;;;19.01;62.10;95017.78;4947761;28;19930;-84
2021/06/07 01:03:23;;;;;;;13.23;11.48;;;;;;;19.05;62.08;95021.44;4956166;29;20023;-85
2021/06/07 01:05:49;;;;;;;13.95;10.68;;;;;;;19.06;61.96;95011.69;4950094;28;20055;-84
2021/06/07 01:08:15;;;;;;;14.00;10.75;;;;;;;19.07;61.93;95016.69;4971776;23;20042;-84
2021/06/07 01:11:01;;;;;;;13.65;11.98;;;;;;;19.04;62.23;95014.59;4948992;28;20047;-86
2021/06/07 01:13:26;;;;;;;15.90;13.23;;;;;;;19.02;61.91;95008.81;4973961;23;20050;-85
2021/06/07 01:15:53;;;;;;;16.52;13.05;;;;;;;19.04;61.80;95011.97;4997573;28;20049;-85
2021/06/07 01:18:23;;;;;;;11.52;10.52;;;;;;;19.10;61.66;95002.94;4964513;28;20430;-85
2021/06/07 01:20:49;;;;;;;13.35;10.25;;;;;;;19.19;61.51;95001.25;5101861;23;20057;-85
2021/06/07 01:23:15;;;;;;;11.02;10.05;;;;;;;19.24;61.12;95003.06;4982080;28;20043;-85
2021/06/07 01:25:41;;;;;;;11.85;10.65;;;;;;;19.29;61.12;95002.19;4988339;28;20050;-85
2021/06/07 01:28:10;;;;;;;12.07;10.85;;;;;;;19.35;60.46;95003.69;4976839;28;20133;-85
2021/06/07 01:30:37;;;;;;;15.73;10.90;;;;;;;19.31;60.51;95002.69;4950501;28;20101;-84
2021/06/07 01:33:07;;;;;;;11.75;9.90;;;;;;;19.27;60.71;95001.69;4984506;23;20043;-83
2021/06/07 01:35:37;;;;;;;17.23;10.50;;;;;;;19.24;60.81;95012.81;4999844;23;20043;-84
2021/06/07 01:38:05;;;;;;;15.88;9.90;;;;;;;19.23;60.81;95012.03;4972164;28;20125;-83
2021/06/07 01:40:36;;;;;;;11.43;10.32;;;;;;;19.21;60.55;95013.38;4954819;28;20046;-84
2021/06/07 01:43:01;;;;;;;11.88;10.60;;;;;;;19.24;60.83;95013.59;4934929;29;20050;-84
2021/06/07 01:45:28;;;;;;;17.40;10.30;;;;;;;19.26;60.71;95008.81;4977314;28;20039;-83
2021/06/07 01:47:53;;;;;;;11.40;10.02;;;;;;;19.24;60.84;95020.72;4920240;29;20051;-83
2021/06/07 01:50:22;;;;;;;13.23;10.55;;;;;;;19.13;60.77;94991.81;4965521;23;20454;31
2021/06/07 01:52:48;;;;;;;12.82;9.32;;;;;;;19.28;60.63;95016.44;4937631;29;20058;-86
2021/06/07 01:55:14;;;;;;;14.05;10.88;;;;;;;19.28;60.60;95013.81;4941311;29;20031;-85
2021/06/07 01:57:41;;;;;;;10.52;9.52;;;;;;;19.26;60.75;95015.94;4946739;28;20402;-84
2021/06/07 02:00:09;;;;;;;13.82;10.07;;;;;;;19.27;60.94;95009.63;4932656;29;20089;-85
2021/06/07 02:02:34;;;;;;;10.93;9.13;;;;;;;19.25;61.21;95009.13;4966859;28;20050;-84
2021/06/07 02:05:00;;;;;;;11.05;9.85;;;;;;;19.26;61.11;95018.59;4932993;29;20043;-84
2021/06/07 02:07:25;;;;;;;13.95;10.35;;;;;;;19.28;61.13;95011.97;4957022;28;20109;-84
2021/06/07 02:09:51;;;;;;;10.93;9.75;;;;;;;19.31;60.91;95014.03;4947465;29;20466;-83
2021/06/07 02:12:16;;;;;;;10.82;9.82;;;;;;;19.35;60.83;95014.25;4930364;29;20118;-83
2021/06/07 02:14:42;;;;;;;14.20;10.25;;;;;;;19.39;60.60;95020.56;4957106;29;20031;-84
2021/06/07 02:17:07;;;;;;;12.25;10.25;;;;;;;19.39;60.76;95016.06;4964506;28;20047;-84
2021/06/07 02:19:33;;;;;;;13.35;10.77;;;;;;;19.39;60.76;95004.72;4933801;28;20042;-83
2021/06/07 02:21:58;;;;;;;10.93;9.73;;;;;;;19.40;60.92;95011.56;4946423;28;20043;-83
2021/06/07 02:24:24;;;;;;;13.30;9.98;;;;;;;19.42;60.73;95015.50;4941962;28;20035;-83
2021/06/07 02:26:49;;;;;;;13.98;10.60;;;;;;;19.43;60.74;95011.00;4965037;28;20043;-83
2021/06/07 02:29:15;;;;;;;16.70;10.27;;;;;;;19.45;60.53;95009.66;4966936;28;20043;-84
2021/06/07 02:31:40;;;;;;;12.05;10.40;;;;;;;19.44;60.85;95012.56;4953121;28;20039;-83
2021/06/07 02:34:07;;;;;;;12.18;10.10;;;;;;;19.42;60.79;95009.44;4948315;28;20098;-83
2021/06/07 02:36:34;;;;;;;15.95;10.05;;;;;;;19.47;60.65;95004.88;4941674;29;20054;-84
2021/06/07 02:39:07;;;;;;;23.08;11.30;;;;;;;19.47;60.58;95006.72;4931652;29;20070;-85
2021/06/07 02:41:33;;;;;;;16.08;9.52;;;;;;;19.48;60.44;95013.56;4928861;29;20035;-84
2021/06/07 02:43:58;;;;;;;13.90;10.13;;;;;;;19.53;60.36;95015.38;4940172;29;20531;-84
2021/06/07 02:46:24;;;;;;;9.98;9.05;;;;;;;19.55;60.05;95010.63;4964059;28;20055;-84
2021/06/07 02:48:50;;;;;;;14.75;10.45;;;;;;;19.55;60.31;95016.69;4934863;29;20039;-84
2021/06/07 02:51:15;;;;;;;14.90;9.88;;;;;;;19.56;59.97;95014.84;4950691;28;20046;-83
2021/06/07 02:53:41;;;;;;;13.52;9.27;;;;;;;19.58;59.45;95018.75;4954170;28;20177;-83
2021/06/07 02:56:07;;;;;;;11.45;9.63;;;;;;;19.50;59.75;95006.16;4951972;28;20085;-82
2021/06/07 02:58:32;;;;;;;11.80;9.88;;;;;;;19.45;60.48;95014.13;4921320;29;20490;-83
2021/06/07 03:01:03;;;;;;;11.57;10.07;;;;;;;19.41;60.66;95019.19;4931257;29;20058;-84
2021/06/07 03:03:28;;;;;;;10.88;9.77;;;;;;;19.41;60.50;95019.19;4931210;29;20130;-83
2021/06/07 03:05:54;;;;;;;23.27;11.90;;;;;;;19.36;60.91;95021.91;4961969;23;20054;-80
2021/06/07 03:08:22;;;;;;;13.65;10.05;;;;;;;19.35;61.30;95024.78;4974670;28;20038;-88
2021/06/07 03:10:49;;;;;;;17.17;10.88;;;;;;;19.35;61.30;95030.06;4937999;28;20039;-85
2021/06/07 03:13:16;;;;;;;12.23;11.02;;;;;;;19.33;61.63;95032.22;4980201;28;20051;-87
2021/06/07 03:15:41;;;;;;;13.70;11.50;;;;;;;19.29;61.69;95020.66;4964093;28;20454;-86
2021/06/07 03:18:07;;;;;;;13.63;12.23;;;;;;;19.21;61.70;95014.16;5052576;23;20796;-85
2021/06/07 03:20:36;;;;;;;13.40;11.02;;;;;;;19.23;61.80;95027.06;4914669;28;20042;-86
2021/06/07 03:23:07;;;;;;;14.75;11.27;;;;;;;19.25;61.81;95019.66;4931081;28;20061;-86
2021/06/07 03:25:32;;;;;;;16.23;10.90;;;;;;;19.23;61.63;95030.47;4945986;28;20039;-86
2021/06/07 03:27:58;;;;;;;16.08;11.07;;;;;;;19.30;61.65;95027.50;4974306;28;20030;-85
2021/06/07 03:30:24;;;;;;;11.68;10.48;;;;;;;19.30;61.33;95027.50;4968555;28;20095;-85
2021/06/07 03:32:49;;;;;;;18.52;11.07;;;;;;;19.32;61.41;95030.63;4974206;28;20110;-84
2021/06/07 03:35:16;;;;;;;11.32;10.23;;;;;;;19.39;61.51;95037.16;4986611;28;20038;-86
2021/06/07 03:37:42;;;;;;;14.90;10.95;;;;;;;19.47;61.37;95043.66;4937481;28;20407;-86
2021/06/07 03:40:10;;;;;;;14.35;11.48;;;;;;;19.53;60.65;95032.00;4958687;28;20041;-84
2021/06/07 03:42:35;;;;;;;15.52;10.85;;;;;;;19.59;60.67;95033.53;4958703;28;20102;-84
2021/06/07 03:45:01;;;;;;;12.85;10.82;;;;;;;19.65;60.61;95035.03;5004583;23;20227;-85
2021/06/07 03:47:26;;;;;;;16.20;10.50;;;;;;;19.70;60.17;95037.63;4960682;28;20038;-85
2021/06/07 03:49:52;;;;;;;20.38;11.25;;;;;;;19.75;60.06;95040.19;4958969;28;20035;-86
2021/06/07 03:52:18;;;;;;;17.52;10.43;;;;;;;19.74;59.72;95041.25;4929218;29;20094;-89
2021/06/07 03:54:43;;;;;;;13.25;10.18;;;;;;;19.75;60.08;95039.41;4925458;23;20040;-90
2021/06/07 03:57:09;;;;;;;14.00;10.80;;;;;;;19.72;60.26;95040.75;4922936;29;20095;-89
2021/06/07 03:59:34;;;;;;;19.67;10.68;;;;;;;19.73;60.01;95036.25;4929312;29;20028;-88
2021/06/07 04:02:02;;;;;;;14.50;11.20;;;;;;;19.81;60.13;95037.47;4967860;29;20028;-86
2021/06/07 04:04:29;;;;;;;16.25;10.63;;;;;;;19.92;60.17;95042.34;4959960;29;20142;-85
2021/06/07 04:06:54;;;;;;;13.25;11.20;;;;;;;19.99;59.55;95031.41;4956882;29;20039;-81
2021/06/07 04:09:21;;;;;;;12.38;10.95;;;;;;;20.11;59.42;95036.28;4933049;29;20444;-85
2021/06/07 04:11:47;;;;;;;15.85;10.40;;;;;;;20.31;58.64;95036.75;4913414;29;20050;-86
2021/06/07 04:14:12;;;;;;;14.05;10.32;;;;;;;20.53;57.70;95027.50;4979988;23;20081;-84
2021/06/07 04:16:38;;;;;;;20.65;10.35;;;;;;;20.77;56.86;95032.63;4969428;28;20039;-83
2021/06/07 04:19:03;;;;;;;14.02;9.55;;;;;;;21.04;55.99;95045.13;4982004;28;20565;-85
2021/06/07 04:21:32;;;;;;;18.58;9.90;;;;;;;21.31;55.15;95042.53;4981731;28;20063;-85
2021/06/07 04:23:58;;;;;;;16.20;10.32;;;;;;;21.58;54.25;95039.88;4975218;28;20042;-84
2021/06/07 04:26:23;;;;;;;16.15;10.13;;;;;;;21.86;53.38;95042.50;4978457;28;20601;-86
2021/06/07 04:28:50;;;;;;;15.43;10.48;;;;;;;22.07;52.85;95042.88;4982452;28;20035;-85
2021/06/07 04:31:15;;;;;;;20.17;10.13;;;;;;;22.38;52.04;95035.81;4953952;28;20537;-81
2021/06/07 04:33:41;;;;;;;21.15;9.40;;;;;;;23.09;50.50;95038.63;4981946;28;20035;-80
2021/06/07 04:36:31;;;;;;;17.60;9.32;;;;;;;24.80;46.18;95035.81;4980724;28;20039;-87
2021/06/07 04:38:56;;;;;;;21.20;8.05;;;;;;;25.66;44.02;95042.75;4980183;28;20038;-86
2021/06/07 04:41:22;;;;;;;15.27;7.85;;;;;;;26.61;41.91;95044.81;4979489;28;20054;-87
2021/06/07 04:43:48;;;;;;;13.18;7.38;;;;;;;27.84;39.41;95029.81;4971968;28;20060;-86
2021/06/07 04:46:13;;;;;;;15.75;7.43;;;;;;;28.25;38.01;95034.84;4980109;28;20119;-87
2021/06/07 04:48:39;;;;;;;19.02;7.45;;;;;;;28.14;38.26;95032.97;4955453;28;20038;-86
2021/06/07 04:51:05;;;;;;;10.73;6.75;;;;;;;27.87;38.12;95031.81;4954656;28;20041;-87
2021/06/07 04:53:30;;;;;;;8.20;7.35;;;;;;;27.71;38.45;95031.72;4956442;28;20042;-86
2021/06/07 04:55:56;;;;;;;11.63;7.50;;;;;;;27.57;38.24;95032.03;4955013;28;20042;-86
2021/06/07 04:58:27;;;;;;;16.55;7.45;;;;;;;27.32;38.96;95035.78;4953862;28;20050;-87
2021/06/07 05:01:05;;;;;;;10.20;8.17;;;;;;;27.01;39.54;95037.09;4982665;23;20057;-87
2021/06/07 05:03:31;;;;;;;14.07;8.00;;;;;;;26.85;40.12;95038.78;4964931;28;20709;-86
2021/06/07 05:05:57;;;;;;;11.07;8.00;;;;;;;26.76;40.05;95040.75;4945114;28;20035;-86
2021/06/07 05:09:13;;;;;;;12.73;7.13;;;;;;;26.74;39.88;95049.09;4943244;29;20067;-85
2021/06/07 05:11:41;;;;;;;9.77;8.15;;;;;;;26.75;39.98;95047.97;4956877;29;20521;-82
2021/06/07 05:14:07;;;;;;;14.07;7.80;;;;;;;26.85;39.57;95044.13;4959700;28;20043;-81
2021/06/07 05:16:36;;;;;;;14.63;7.32;;;;;;;27.04;39.30;95043.66;4960869;28;20043;-82
2021/06/07 05:19:02;;;;;;;16.35;7.90;;;;;;;27.21;38.98;95051.47;4968645;28;20451;-83
2021/06/07 05:21:27;;;;;;;12.98;6.75;;;;;;;27.36;38.13;95047.38;4936113;28;20047;-82
2021/06/07 05:23:52;;;;;;;7.75;6.13;;;;;;;27.68;38.28;95048.44;4957124;23;20514;-82
2021/06/07 05:26:18;;;;;;;9.52;7.07;;;;;;;28.16;36.96;95047.59;4941032;29;20047;-83
2021/06/07 05:28:43;;;;;;;17.35;7.18;;;;;;;28.41;36.60;95048.31;4933116;29;20138;-82
2021/06/07 05:31:09;;;;;;;12.93;7.13;;;;;;;28.61;36.50;95052.72;4933422;29;20039;-82
2021/06/07 05:33:35;;;;;;;16.75;7.72;;;;;;;29.18;33.79;95048.13;4934118;29;20122;-82
2021/06/07 05:36:00;;;;;;;11.10;6.57;;;;;;;30.44;32.28;95051.47;4893820;29;20074;-83
2021/06/07 05:38:26;;;;;;;18.45;5.50;;;;;;;31.99;29.94;95043.09;4925233;29;20523;-83
2021/06/07 05:40:54;;;;;;;26.80;6.07;;;;;;;33.61;27.38;95047.25;4945300;29;20050;-81
2021/06/07 05:43:22;;;;;;;6.63;4.68;;;;;;;35.18;25.35;95054.28;4930911;29;20515;-81
2021/06/07 05:45:48;;;;;;;13.13;4.70;;;;;;;36.24;23.03;95050.03;4926146;29;20036;-81
2021/06/07 05:48:14;;;;;;;6.15;4.10;;;;;;;36.55;22.61;95051.13;4937268;29;20507;-81
2021/06/07 05:50:40;;;;;;;8.02;4.53;;;;;;;36.46;23.06;95042.66;4941768;29;20035;-80
2021/06/07 05:53:05;;;;;;;8.70;4.40;;;;;;;36.55;22.60;95051.13;4971295;23;20051;-81
2021/06/07 05:55:32;;;;;;;7.18;4.63;;;;;;;36.27;23.11;95044.59;4972084;28;20034;-80
2021/06/07 05:58:00;;;;;;;12.05;4.32;;;;;;;35.84;23.26;95053.94;4948178;28;20483;-80
2021/06/07 06:00:27;;;;;;;8.00;4.10;;;;;;;34.96;23.62;95053.44;4972064;28;20029;-81
2021/06/07 06:02:53;;;;;;;14.40;4.63;;;;;;;34.13;24.79;95050.72;4971828;28;20038;-80
2021/06/07 06:05:18;;;;;;;16.60;5.35;;;;;;;33.59;26.49;95038.78;4969837;28;20070;-80
2021/06/07 06:07:44;;;;;;;9.63;5.50;;;;;;;33.50;26.37;95051.78;4969215;28;20038;-80
2021/06/07 06:10:10;;;;;;;12.45;5.53;;;;;;;33.39;27.13;95051.72;4979168;28;20049;-80
2021/06/07 06:12:36;;;;;;;19.63;5.20;;;;;;;33.56;26.73;95044.91;4978078;28;20027;-80
2021/06/07 06:15:03;;;;;;;10.30;5.43;;;;;;;33.32;27.08;95051.59;4971965;23;20039;-81
2021/06/07 06:17:28;;;;;;;8.60;4.80;;;;;;;33.50;26.70;95049.09;4980032;28;20497;-80
2021/06/07 06:19:54;;;;;;;14.93;5.00;;;;;;;33.89;25.67;95052.91;5003463;28;20035;-81
2021/06/07 06:22:19;;;;;;;7.47;4.68;;;;;;;34.26;25.73;95049.25;5014543;28;20034;-80
2021/06/07 06:24:45;;;;;;;10.45;4.60;;;;;;;34.65;24.70;95048.69;4999976;28;20433;-79
2021/06/07 06:27:12;;;;;;;7.97;4.90;;;;;;;34.92;24.37;95043.78;4999597;28;20038;-79
2021/06/07 06:29:37;;;;;;;10.13;4.90;;;;;;;35.11;24.05;95049.63;5017313;28;20489;-80
2021/06/07 06:32:04;;;;;;;14.10;4.63;;;;;;;34.90;24.56;95041.47;5014919;28;20044;-79
2021/06/07 06:34:30;;;;;;;7.35;4.40;;;;;;;34.98;24.22;95048.44;4998935;28;20041;-79
2021/06/07 06:36:55;;;;;;;16.15;4.60;;;;;;;34.96;24.77;95050.75;5017493;28;20065;-78
2021/06/07 06:39:21;;;;;;;13.88;5.22;;;;;;;34.41;25.49;95050.13;5017614;28;20030;-79
2021/06/07 06:41:46;;;;;;;11.30;4.50;;;;;;;33.38;26.26;95042.84;5023358;28;20086;-80
2021/06/07 06:44:12;;;;;;;9.93;5.03;;;;;;;32.71;27.35;95042.91;5023729;28;20030;-79
2021/06/07 06:46:37;;;;;;;9.32;5.15;;;;;;;32.27;28.38;95048.13;4984341;28;20033;-80
2021/06/07 06:49:03;;;;;;;8.73;6.03;;;;;;;32.14;29.22;95052.91;5020312;28;20038;-80
2021/06/07 06:51:29;;;;;;;6.38;4.35;;;;;;;32.39;28.58;95044.44;5015270;28;20042;-79
2021/06/07 06:56:24;;;;;;;10.15;4.85;;;;;;;31.46;29.65;95051.09;5118744;23;20059;-79
2021/06/07 06:58:50;;;;;;;9.02;5.30;;;;;;;30.99;30.40;95051.38;4948221;28;20487;-78
2021/06/07 07:01:16;;;;;;;11.02;4.90;;;;;;;30.55;31.56;95058.94;4918667;29;20031;-80
2021/06/07 07:03:42;;;;;;;12.10;5.40;;;;;;;30.15;31.36;95060.03;4972278;28;20062;-75
2021/06/07 07:06:07;;;;;;;9.00;5.30;;;;;;;29.61;32.60;95049.97;4958149;28;20066;-79
2021/06/07 07:08:33;;;;;;;6.10;5.50;;;;;;;29.25;33.31;95050.97;4957899;29;20463;-80
2021/06/07 07:10:59;;;;;;;7.40;5.97;;;;;;;28.96;33.35;95049.47;4960031;28;20031;-81
2021/06/07 07:13:25;;;;;;;12.70;5.60;;;;;;;28.86;34.29;95053.44;5047938;23;20042;-78
2021/06/07 07:15:50;;;;;;;8.50;5.60;;;;;;;28.73;34.15;95049.22;5001928;28;20041;-79
2021/06/07 07:18:16;;;;;;;10.05;5.50;;;;;;;28.57;34.75;95054.50;5002853;28;20036;-79
2021/06/07 07:20:44;;;;;;;13.88;5.68;;;;;;;28.44;34.79;95050.31;4996883;28;20022;-78
2021/06/07 07:25:47;;;;;;;12.48;5.80;;;;;;;28.22;35.47;95053.47;5428173;23;20087;-81
2021/06/07 07:28:13;;;;;;;10.27;5.50;;;;;;;28.12;35.18;95049.38;4984378;28;20150;-82
2021/06/07 07:30:38;;;;;;;9.43;5.38;;;;;;;27.88;35.08;95057.44;4982043;28;20030;-79
2021/06/07 07:33:04;;;;;;;13.35;5.65;;;;;;;27.66;35.33;95048.75;4945718;28;20031;-79
2021/06/07 07:35:29;;;;;;;11.68;5.72;;;;;;;27.48;36.20;95052.72;4966132;28;20041;-79
2021/06/07 07:37:55;;;;;;;7.35;6.22;;;;;;;27.36;36.27;95045.50;4956447;28;20042;-79
2021/06/07 07:40:22;;;;;;;7.65;5.28;;;;;;;27.32;35.79;95052.59;4948552;28;20039;-78
2021/06/07 07:42:48;;;;;;;16.10;5.43;;;;;;;27.42;35.91;95051.38;4947076;28;20038;-80
2021/06/07 07:45:15;;;;;;;6.53;5.68;;;;;;;27.74;35.52;95047.84;4974222;28;20038;-82
2021/06/07 07:47:44;;;;;;;7.32;5.40;;;;;;;28.04;35.31;95056.41;4948100;28;20058;-79
2021/06/07 07:50:15;;;;;;;9.45;5.55;;;;;;;28.16;34.95;95046.81;4962892;28;20355;-79
2021/06/07 07:52:43;;;;;;;14.73;5.40;;;;;;;28.18;35.04;95050.72;4980096;28;20062;-79
2021/06/07 07:55:17;;;;;;;9.35;5.35;;;;;;;28.21;34.86;95054.59;4975571;28;20053;-80
2021/06/07 07:57:43;;;;;;;11.43;5.32;;;;;;;28.09;34.76;95053.50;4952044;28;20054;-82
2021/06/07 08:00:09;;;;;;;10.63;6.30;;;;;;;27.95;35.25;95057.63;4944823;28;20129;-79
2021/06/07 08:02:35;;;;;;;11.68;5.57;;;;;;;27.92;35.41;95053.75;4978793;28;20042;-80
2021/06/07 08:05:01;;;;;;;10.57;5.18;;;;;;;28.04;35.93;95058.31;4975217;28;20079;-79
2021/06/07 08:07:28;;;;;;;5.85;5.35;;;;;;;28.15;35.55;95051.38;4978078;28;20042;-80
2021/06/07 08:09:54;;;;;;;8.20;5.10;;;;;;;28.09;35.05;95047.38;4980083;28;20062;-78
2021/06/07 08:12:19;;;;;;;7.30;4.97;;;;;;;28.13;35.29;95052.81;4954015;28;20093;-81
2021/06/07 08:14:45;;;;;;;5.85;5.20;;;;;;;28.35;35.17;95055.03;4949058;28;20034;-80
2021/06/07 08:17:16;;;;;;;7.10;5.50;;;;;;;28.44;34.42;95055.66;4962676;28;20054;-80
2021/06/07 08:19:41;;;;;;;7.50;5.00;;;;;;;28.37;34.05;95052.81;4992457;23;20437;-80
2021/06/07 08:22:06;;;;;;;9.25;5.45;;;;;;;28.44;34.60;95052.22;4972825;28;20039;-80
2021/06/07 08:24:32;;;;;;;10.13;5.10;;;;;;;28.62;34.04;95051.59;4969667;28;20034;-81
2021/06/07 08:26:57;;;;;;;5.78;5.18;;;;;;;28.58;34.68;95053.41;4964801;28;20493;-81
2021/06/07 08:29:23;;;;;;;12.70;4.88;;;;;;;28.30;35.27;95057.94;4965254;28;20038;-81
2021/06/07 08:31:48;;;;;;;6.00;5.22;;;;;;;28.13;35.62;95052.81;4943432;28;20034;-81
2021/06/07 08:34:14;;;;;;;6.68;5.65;;;;;;;27.96;35.56;95054.63;4964297;28;20491;-81
2021/06/07 08:36:39;;;;;;;7.85;5.88;;;;;;;27.93;35.60;95051.84;4963623;28;20031;-80
2021/06/07 08:41:42;;;;;;;7.55;5.75;;;;;;;28.49;36.20;95046.66;4978593;23;20051;-81
2021/06/07 08:44:08;;;;;;;5.75;5.30;;;;;;;28.82;35.06;95041.03;4954246;28;20050;-81
2021/06/07 08:46:33;;;;;;;5.55;5.05;;;;;;;29.05;34.73;95039.38;4945431;28;20031;-80
2021/06/07 08:48:58;;;;;;;13.18;5.60;;;;;;;29.36;34.21;95038.63;4945156;28;20039;-80
2021/06/07 08:51:24;;;;;;;15.50;5.50;;;;;;;29.63;33.17;95037.00;4963966;28;20469;-80
2021/06/07 08:59:00;;;;;;;7.75;5.10;;;;;;;30.33;32.12;95029.00;4990046;23;20545;-79
2021/06/07 09:01:26;;;;;;;13.73;4.82;;;;;;;30.26;31.73;95026.16;4971984;28;20030;-79
2021/06/07 09:03:51;;;;;;;6.47;4.57;;;;;;;29.96;32.24;95025.13;4970062;28;20046;-79
2021/06/07 09:06:24;;;;;;;5.82;5.07;;;;;;;29.72;32.56;95034.91;4936444;28;20035;-80
2021/06/07 09:08:49;;;;;;;5.88;4.60;;;;;;;29.57;32.54;95022.31;4965267;28;20027;-80
2021/06/07 09:11:16;;;;;;;10.77;5.13;;;;;;;29.28;33.04;95026.94;4950969;28;20550;-79
2021/06/07 09:13:42;;;;;;;10.15;4.97;;;;;;;28.95;34.03;95024.59;4965424;28;20066;-79
2021/06/07 09:16:09;;;;;;;7.20;4.93;;;;;;;28.67;34.24;95023.81;4954279;28;20073;-80
2021/06/07 09:18:46;;;;;;;11.15;4.90;;;;;;;28.48;34.65;95029.81;4965365;28;20062;-79
2021/06/07 09:21:17;;;;;;;15.18;5.38;;;;;;;28.13;35.50;95031.44;4943497;28;20039;-80
2021/06/07 09:23:47;;;;;;;12.65;5.45;;;;;;;27.81;36.59;95026.69;4948666;28;20071;-80
2021/06/07 09:26:24;;;;;;;5.57;5.07;;;;;;;27.58;36.50;95024.78;4963664;28;20031;-81
2021/06/07 09:28:50;;;;;;;8.52;5.05;;;;;;;27.25;36.64;95031.00;4964178;28;20035;-78
2021/06/07 09:31:16;;;;;;;10.60;5.47;;;;;;;27.10;36.45;95035.09;4914145;28;20134;-79
2021/06/07 09:33:43;;;;;;;12.20;6.93;;;;;;;26.98;38.11;95034.25;4969602;28;20043;-79
2021/06/07 09:36:13;;;;;;;15.25;6.50;;;;;;;26.82;38.68;95029.53;5035554;23;20053;-80
2021/06/07 09:38:52;;;;;;;16.05;5.72;;;;;;;26.78;38.61;95030.53;5010383;28;20038;-79
2021/06/07 09:41:17;;;;;;;16.65;7.28;;;;;;;26.67;39.29;95054.16;4982042;28;20453;-80
2021/06/07 09:43:58;;;;;;;26.63;9.27;;;;;;;26.41;40.42;95056.28;4974228;28;20066;-79
2021/06/07 09:46:25;;;;;;;28.15;8.85;;;;;;;26.37;41.70;95052.72;4990488;28;20046;-79
2021/06/07 09:49:12;;;;;;;17.98;10.00;;;;;;;26.20;43.64;95054.38;5003257;28;20112;-79
2021/06/07 09:51:38;;;;;;;12.30;7.80;;;;;;;26.07;44.50;95058.06;4975541;28;20058;-78
2021/06/07 09:54:04;;;;;;;24.67;8.75;;;;;;;25.93;45.50;95057.53;5005134;28;20030;-77
2021/06/07 09:56:30;;;;;;;12.13;8.75;;;;;;;25.83;46.23;95061.34;4973356;28;20513;-79
2021/06/07 09:58:55;;;;;;;15.82;7.78;;;;;;;25.59;46.77;95058.47;4988834;28;20038;-79
2021/06/07 10:01:32;;;;;;;10.95;8.65;;;;;;;25.50;46.30;95060.38;4959394;28;20026;-79
2021/06/07 10:03:59;;;;;;;11.82;8.38;;;;;;;25.34;46.84;95062.78;4958651;28;20068;-79
2021/06/07 10:06:35;;;;;;;13.82;7.80;;;;;;;25.26;46.72;95058.28;4975657;28;20088;-80
2021/06/07 10:09:14;;;;;;;21.75;7.78;;;;;;;25.00;47.62;95061.78;4988142;28;20069;-79
2021/06/07 10:11:41;;;;;;;11.82;7.60;;;;;;;24.87;47.30;95048.63;5002749;28;20038;-78
2021/06/07 10:14:20;;;;;;;17.98;7.95;;;;;;;24.70;47.61;95060.84;5007450;28;20045;-80
2021/06/07 10:16:56;;;;;;;22.48;10.75;;;;;;;24.49;47.70;95050.09;5002958;28;20035;-77
2021/06/07 10:19:37;;;;;;;9.70;8.65;;;;;;;24.36;49.08;95055.56;4983420;28;20128;-78
2021/06/07 10:22:03;;;;;;;15.55;9.10;;;;;;;24.23;50.20;95054.59;4980117;28;20026;-65
2021/06/07 10:24:29;;;;;;;18.23;9.27;;;;;;;24.12;50.97;95062.09;4996784;28;20169;-65
2021/06/07 10:26:54;;;;;;;28.83;24.92;;;;;;;23.88;52.28;95059.84;5007010;28;20030;-65
2021/06/07 10:29:19;;;;;;;9.18;8.02;;;;;;;23.59;50.29;95060.44;5006455;28;20038;-65
2021/06/07 10:31:45;;;;;;;10.13;7.10;;;;;;;23.27;51.18;95053.56;4989124;28;20050;-65
2021/06/07 10:34:11;;;;;;;10.10;6.32;;;;;;;23.00;51.85;95059.03;4997469;28;20568;-65
2021/06/07 10:36:37;;;;;;;7.28;6.60;;;;;;;22.71;53.34;95054.91;4998219;28;20033;-77
2021/06/07 10:39:16;;;;;;;6.82;5.93;;;;;;;22.37;54.62;95058.09;4997839;28;20093;-76
2021/06/07 10:41:42;;;;;;;6.55;5.55;;;;;;;22.02;56.16;95064.16;4993314;28;20031;-76
2021/06/07 10:44:08;;;;;;;6.57;5.57;;;;;;;21.66;57.67;95064.13;4965602;28;20444;-76
2021/06/07 10:46:41;;;;;;;10.25;5.78;;;;;;;21.34;58.19;95060.47;4979003;28;20040;-76
2021/06/07 10:49:44;;;;;;;9.38;6.50;;;;;;;21.12;59.86;95068.25;4984036;28;20069;-76
2021/06/07 10:52:25;;;;;;;;;;;;;;;21.00;60.96;95062.66;5003073;28;20038;-76
2021/06/07 10:54:55;;;;;;;12.38;7.43;;;;;;;20.96;62.01;95054.50;5005230;28;19917;-78
2021/06/07 10:57:26;;;;;;;12.70;7.78;;;;;;;20.92;62.06;95056.94;4994942;28;20035;-77
2021/06/07 11:00:20;;;;;;;17.48;7.60;;;;;;;20.93;62.23;95047.16;5000899;28;20034;-78
2021/06/07 11:02:46;;;;;;;17.98;8.07;;;;;;;20.95;62.41;95053.72;4961210;28;20326;-78
2021/06/07 11:05:22;;;;;;;11.85;9.00;;;;;;;20.99;63.53;95051.31;4996567;28;20045;-76
2021/06/07 11:10:24;;;;;;;42.28;37.30;;;;;;;21.23;64.12;95046.63;5037177;23;20050;-78
2021/06/07 11:12:52;;;;;;;62.08;50.03;;;;;;;21.29;63.77;95042.03;4979820;28;20039;-78
2021/06/07 11:15:20;;;;;;;28.65;25.50;;;;;;;21.41;63.63;95044.22;4980780;28;20089;-78
2021/06/07 11:17:46;;;;;;;23.95;17.60;;;;;;;21.51;63.49;95042.16;4970925;28;20049;-77
2021/06/07 11:20:12;;;;;;;19.83;17.08;;;;;;;21.65;62.30;95041.38;4977079;28;20417;-77
2021/06/07 11:23:01;;;;;;;18.33;12.52;;;;;;;21.81;61.84;95037.34;4972141;28;20491;-78
2021/06/07 11:25:27;;;;;;;24.00;14.55;;;;;;;21.90;61.77;95040.84;4978885;28;20549;-77
2021/06/07 11:27:52;;;;;;;16.95;11.20;;;;;;;22.03;61.87;95032.09;4969773;28;20030;-77
2021/06/07 11:30:19;;;;;;;15.18;11.20;;;;;;;22.22;61.56;95031.19;4986928;28;20523;-78
2021/06/07 11:32:44;;;;;;;15.73;11.00;;;;;;;22.41;60.66;95032.56;4987278;28;20038;-78
2021/06/07 11:35:46;;;;;;;15.43;13.70;;;;;;;22.57;60.79;95027.69;4987673;28;20035;-78
2021/06/07 11:38:52;;;;;;;11.52;10.20;;;;;;;22.62;59.98;95021.50;4921562;29;20055;-77
2021/06/07 11:41:57;;;;;;;11.05;9.95;;;;;;;22.82;60.85;95025.53;4921495;29;20044;-78
2021/06/07 11:44:47;;;;;;;19.20;7.80;;;;;;;23.01;58.01;95024.25;4934079;29;20126;-81